Portada
METAR-TAF:

METAR-TAF

Aeroports :

Aeroport de Chingozi

Tete, Moçambic

latitud: 16-06S, longitud: 033-38E, altitud: 160 m

Observació

L'informe es va fer fa 1 hora i 11 minuts, a les 02:00 UTC
Vent 8 kt del Sud
Temperatura 21°C
Humitat 73%
Pressió 1020 hPa
Visibilitat 10 km o més
sense núvols per sota de 1500 mi sense presència de cumulonimbus.

METAR: FQTT 200200Z 17008KT CAVOK 21/16 Q1020

Hora: 05:11 (03:11 UTC)

Pronòstic

L'informe es va fer fa 5 hores i 11 minuts, a les 22:00 UTC
Pronòstic vàlid del 20 a les 00 UTC al 21 a les 00 UTC
Vent 7 kt del Sud-Oest
Visibilitat 10 km o més
Escasses núvols a una alçada de 2000 ft
Evolucionant progressivament
l' 20 a les 06 UTC al 20 a les 08 UTC
Vent 10 kt del Sud/Sud-Est
Evolucionant progressivament
l' 20 a les 18 UTC al 20 a les 20 UTC
Vent 2 kt amb direcció variable

TAF: FQTT 192200Z 2000/2100 22007KT 9999 FEW020 TX33/2013Z TN22/2003Z BECMG 2006/2008 15010KT BECMG 2018/2020 VRB02KT

Observacions i pronòstics meteorològics de més de 4000 aeroports (METAR i TAF).

Les estacions disponibles són els punts grocs i vermells al mapa.

Posi el ratolí al punt desitjat per veure el nom de l'estació.

Feu clic per veure les observacions i els pronòstics meteorològics.

Per canviar el mapa: feu clic els botons verds amb una creu de color negre per apropar; al botó verd amb un guió per allunyar la imatge; o en les fletxes verdes per a mapes adjacents.


METAR-TAF: